createdAt,value
2023-02-08T00:00:55.809Z,13.23
2023-02-08T00:03:22.760Z,14.40
2023-02-08T00:05:50.019Z,15.33
2023-02-08T00:08:17.407Z,17.00
2023-02-08T00:10:44.538Z,15.67
2023-02-08T00:13:11.439Z,14.87
2023-02-08T00:15:43.204Z,15.77
2023-02-08T00:18:10.110Z,15.47
2023-02-08T00:20:40.825Z,14.50
2023-02-08T00:23:08.321Z,16.43
2023-02-08T00:25:35.842Z,15.53
2023-02-08T00:28:04.639Z,15.20
2023-02-08T00:30:32.614Z,13.60
2023-02-08T00:33:01.289Z,15.20
2023-02-08T00:35:29.022Z,16.43
2023-02-08T00:37:56.794Z,15.80
2023-02-08T00:40:24.895Z,14.87
2023-02-08T00:42:51.831Z,14.37
2023-02-08T00:45:18.834Z,14.93
2023-02-08T00:47:45.747Z,17.97
2023-02-08T00:50:12.670Z,17.93
2023-02-08T00:52:39.776Z,17.50
2023-02-08T00:55:07.488Z,15.60
2023-02-08T00:57:34.802Z,15.23
2023-02-08T01:00:02.425Z,16.60
2023-02-08T01:02:29.401Z,16.10
2023-02-08T01:04:56.338Z,16.63
2023-02-08T01:07:23.268Z,17.33
2023-02-08T01:09:50.194Z,14.47
2023-02-08T01:12:17.150Z,16.27
2023-02-08T01:14:44.112Z,17.50
2023-02-08T01:17:11.012Z,15.83
2023-02-08T01:19:37.986Z,17.37
2023-02-08T01:22:04.970Z,13.97
2023-02-08T01:24:32.588Z,15.70
2023-02-08T01:26:59.487Z,14.20
2023-02-08T01:29:26.371Z,15.47
2023-02-08T01:31:53.325Z,15.40
2023-02-08T01:34:20.966Z,15.57
2023-02-08T01:36:47.926Z,16.17
2023-02-08T01:39:14.837Z,16.63
2023-02-08T01:41:46.530Z,15.60
2023-02-08T01:44:14.850Z,13.90
2023-02-08T01:46:44.876Z,15.63
2023-02-08T01:49:28.002Z,15.00
2023-02-08T01:52:14.932Z,14.27
2023-02-08T01:54:59.239Z,14.90
2023-02-08T01:57:27.697Z,14.63
2023-02-08T02:00:18.526Z,15.30
2023-02-08T02:02:47.886Z,16.23
2023-02-08T02:05:17.508Z,14.80
2023-02-08T02:07:44.724Z,14.90
2023-02-08T02:10:32.204Z,16.00
2023-02-08T02:13:14.422Z,14.93
2023-02-08T02:15:45.265Z,15.00
2023-02-08T02:18:24.002Z,14.10
2023-02-08T02:21:33.281Z,15.67
2023-02-08T02:24:36.455Z,14.97
2023-02-08T02:27:19.959Z,14.20
2023-02-08T02:30:14.049Z,16.60
2023-02-08T02:33:25.225Z,15.70
2023-02-08T02:36:37.571Z,15.53
2023-02-08T02:39:45.402Z,13.50
2023-02-08T02:42:41.798Z,16.30
2023-02-08T02:45:26.975Z,13.70
2023-02-08T02:48:14.322Z,13.70
2023-02-08T02:50:48.606Z,14.83
2023-02-08T02:53:42.090Z,15.17
2023-02-08T02:56:22.487Z,14.90
2023-02-08T02:58:51.004Z,14.83
2023-02-08T03:01:30.076Z,16.03
2023-02-08T03:03:57.579Z,16.10
2023-02-08T03:06:40.594Z,16.87
2023-02-08T03:09:35.079Z,14.23
2023-02-08T03:12:45.240Z,14.57
2023-02-08T03:15:38.866Z,14.50
2023-02-08T03:18:49.903Z,13.83
2023-02-08T03:21:40.596Z,15.67
2023-02-08T03:24:52.233Z,13.63
2023-02-08T03:27:42.580Z,14.83
2023-02-08T03:30:16.614Z,15.57
2023-02-08T03:32:50.348Z,16.57
2023-02-08T03:35:26.628Z,15.53
2023-02-08T03:38:00.579Z,14.77
2023-02-08T03:40:33.022Z,16.13
2023-02-08T03:43:07.580Z,15.50
2023-02-08T03:45:45.584Z,14.70
2023-02-08T03:48:17.003Z,15.77
2023-02-08T03:50:49.654Z,14.47
2023-02-08T03:53:21.789Z,15.67
2023-02-08T03:55:54.830Z,15.53
2023-02-08T03:58:34.371Z,16.57
2023-02-08T04:01:15.706Z,14.70
2023-02-08T04:03:45.198Z,15.57
2023-02-08T04:06:12.615Z,16.30
2023-02-08T04:08:39.522Z,15.90
2023-02-08T04:11:06.402Z,15.67
2023-02-08T04:13:33.318Z,17.20
2023-02-08T04:16:00.378Z,15.97
2023-02-08T04:18:27.333Z,16.50
2023-02-08T04:20:54.215Z,16.73
2023-02-08T04:23:21.145Z,16.03
2023-02-08T04:25:48.023Z,15.60
2023-02-08T04:28:14.969Z,16.20
2023-02-08T04:30:42.130Z,17.10
2023-02-08T04:33:09.244Z,15.20
2023-02-08T04:35:36.134Z,15.47
2023-02-08T04:38:03.031Z,17.07
2023-02-08T04:40:31.073Z,16.03
2023-02-08T04:42:58.043Z,16.80
2023-02-08T04:45:26.997Z,16.30
2023-02-08T04:47:54.011Z,16.20
2023-02-08T04:50:21.038Z,17.23
2023-02-08T04:52:47.922Z,17.17
2023-02-08T04:55:14.803Z,16.00
2023-02-08T04:57:41.685Z,16.27
2023-02-08T05:00:09.470Z,16.67
2023-02-08T05:02:36.343Z,15.33
2023-02-08T05:05:03.495Z,16.10
2023-02-08T05:07:30.615Z,16.43
2023-02-08T05:09:57.531Z,14.50
2023-02-08T05:12:24.410Z,16.70
2023-02-08T05:14:51.343Z,16.97
2023-02-08T05:17:18.192Z,16.50
2023-02-08T05:19:45.079Z,16.33
2023-02-08T05:22:11.934Z,17.03
2023-02-08T05:24:38.811Z,17.20
2023-02-08T05:27:05.671Z,15.73
2023-02-08T05:29:32.571Z,17.80
2023-02-08T05:31:59.486Z,17.30
2023-02-08T05:34:26.386Z,17.97
2023-02-08T05:36:53.272Z,16.87
2023-02-08T05:39:20.258Z,16.57
2023-02-08T05:41:47.128Z,15.83
2023-02-08T05:44:14.016Z,17.90
2023-02-08T05:46:40.951Z,18.00
2023-02-08T05:49:08.217Z,16.17
2023-02-08T05:51:35.114Z,16.93
2023-02-08T05:54:02.030Z,16.47
2023-02-08T05:56:29.667Z,17.92
2023-02-08T05:58:56.558Z,16.97
2023-02-08T06:01:23.517Z,17.80
2023-02-08T06:03:50.410Z,18.50
2023-02-08T06:06:17.299Z,21.40
2023-02-08T06:08:44.226Z,17.60
2023-02-08T06:11:11.112Z,18.83
2023-02-08T06:13:39.049Z,18.40
2023-02-08T06:16:06.987Z,19.47
2023-02-08T06:18:33.874Z,20.33
2023-02-08T06:21:00.730Z,18.70
2023-02-08T06:23:27.630Z,20.77
2023-02-08T06:25:54.527Z,18.77
2023-02-08T06:28:21.481Z,20.77
2023-02-08T06:30:52.335Z,19.77
2023-02-08T06:33:19.870Z,18.27
2023-02-08T06:35:48.202Z,19.63
2023-02-08T06:38:15.224Z,20.17
2023-02-08T06:40:42.526Z,20.43
2023-02-08T06:43:09.652Z,20.17
2023-02-08T06:45:36.596Z,20.53
2023-02-08T06:48:03.861Z,21.57
2023-02-08T06:50:31.110Z,22.20
2023-02-08T06:52:58.102Z,23.37
2023-02-08T06:55:25.039Z,23.07
2023-02-08T06:57:55.851Z,23.33
2023-02-08T07:00:22.905Z,22.60
2023-02-08T07:02:49.794Z,23.70
2023-02-08T07:05:16.819Z,22.60
2023-02-08T07:07:43.840Z,21.83
2023-02-08T07:10:10.731Z,20.53
2023-02-08T07:12:38.423Z,21.53
2023-02-08T07:15:05.590Z,19.50
2023-02-08T07:17:32.469Z,20.37
2023-02-08T07:19:59.349Z,18.87
2023-02-08T07:22:26.245Z,18.10
2023-02-08T07:24:53.189Z,18.60
2023-02-08T07:27:20.080Z,18.43
2023-02-08T07:29:47.009Z,21.40
2023-02-08T07:32:14.013Z,19.90
2023-02-08T07:34:40.958Z,20.70
2023-02-08T07:37:08.461Z,23.13
2023-02-08T07:39:35.345Z,22.40
2023-02-08T07:42:02.286Z,21.97
2023-02-08T07:44:37.102Z,23.30
2023-02-08T07:47:05.330Z,22.00
2023-02-08T07:49:33.318Z,23.70
2023-02-08T07:52:01.828Z,24.00
2023-02-08T07:54:29.543Z,24.17
2023-02-08T07:56:57.090Z,23.53
2023-02-08T07:59:24.182Z,21.40
2023-02-08T08:01:51.067Z,21.13
2023-02-08T08:04:19.726Z,22.53
2023-02-08T08:06:46.893Z,22.03
2023-02-08T08:09:15.338Z,22.00
2023-02-08T08:11:42.200Z,21.43
2023-02-08T08:14:09.078Z,21.80
2023-02-08T08:16:36.003Z,21.77
2023-02-08T08:19:02.955Z,21.53
2023-02-08T08:21:29.831Z,20.63
2023-02-08T08:23:56.722Z,22.63
2023-02-08T08:26:23.627Z,23.13
2023-02-08T08:28:50.568Z,23.70
2023-02-08T08:31:20.961Z,21.17
2023-02-08T08:33:48.379Z,21.70
2023-02-08T08:36:15.962Z,21.10
2023-02-08T08:38:42.847Z,21.70
2023-02-08T08:41:17.873Z,22.90
2023-02-08T08:43:45.497Z,21.00
2023-02-08T08:46:12.481Z,20.57
2023-02-08T08:48:39.431Z,21.90
2023-02-08T08:51:07.131Z,21.50
2023-02-08T08:53:34.635Z,21.37
2023-02-08T08:56:01.693Z,21.60
2023-02-08T08:58:29.186Z,21.47
2023-02-08T09:01:00.436Z,23.20
2023-02-08T09:03:28.784Z,21.23
2023-02-08T09:05:56.248Z,21.87
2023-02-08T09:08:23.261Z,22.37
2023-02-08T09:10:50.162Z,22.20
2023-02-08T09:13:20.096Z,22.70
2023-02-08T09:15:48.333Z,25.10
2023-02-08T09:18:15.307Z,21.80
2023-02-08T09:20:42.567Z,22.20
2023-02-08T09:23:09.657Z,21.40
2023-02-08T09:25:37.477Z,23.00
2023-02-08T09:28:05.058Z,23.77
2023-02-08T09:30:32.827Z,23.87
2023-02-08T09:32:59.893Z,24.30
2023-02-08T09:35:26.798Z,22.47
2023-02-08T09:37:55.774Z,23.00
2023-02-08T09:40:26.479Z,22.30
2023-02-08T09:43:22.915Z,21.40
2023-02-08T09:46:18.660Z,22.47
2023-02-08T09:48:46.322Z,21.97
2023-02-08T09:51:32.867Z,23.80
2023-02-08T09:54:23.876Z,22.90
2023-02-08T09:56:52.669Z,24.10
2023-02-08T09:59:40.961Z,21.60
2023-02-08T10:02:31.219Z,22.80
2023-02-08T10:05:11.792Z,24.70
2023-02-08T10:07:41.148Z,22.43
2023-02-08T10:10:18.954Z,21.90
2023-02-08T10:13:40.833Z,24.73
2023-02-08T10:16:19.036Z,24.30
2023-02-08T10:19:10.238Z,22.13
2023-02-08T10:22:13.322Z,25.50
2023-02-08T10:25:17.428Z,23.57
2023-02-08T10:28:11.723Z,22.50
2023-02-08T10:31:28.808Z,22.00
2023-02-08T10:34:05.468Z,23.23
2023-02-08T10:36:41.824Z,22.57
2023-02-08T10:39:24.715Z,23.13
2023-02-08T10:41:51.783Z,20.43
2023-02-08T10:44:42.448Z,20.20
2023-02-08T10:47:22.358Z,22.67
2023-02-08T10:49:59.276Z,22.40
2023-02-08T10:52:26.249Z,24.07
2023-02-08T10:54:54.525Z,23.90
2023-02-08T10:57:26.164Z,22.77
2023-02-08T11:00:19.639Z,21.50
2023-02-08T11:02:47.241Z,21.03
2023-02-08T11:05:36.008Z,21.50
2023-02-08T11:08:19.790Z,21.23
2023-02-08T11:11:04.322Z,19.80
2023-02-08T11:13:41.839Z,19.67
2023-02-08T11:16:13.617Z,19.80
2023-02-08T11:18:49.204Z,19.80
2023-02-08T11:21:36.490Z,21.13
2023-02-08T11:25:14.598Z,19.87
2023-02-08T11:27:49.311Z,19.97
2023-02-08T11:30:23.272Z,20.97
2023-02-08T11:33:16.482Z,23.20
2023-02-08T11:35:45.076Z,21.03
2023-02-08T11:38:19.682Z,20.97
2023-02-08T11:40:46.688Z,21.63
2023-02-08T11:43:30.307Z,21.07
2023-02-08T11:45:59.616Z,19.13
2023-02-08T11:48:39.509Z,21.30
2023-02-08T11:51:06.958Z,20.30
2023-02-08T11:53:39.653Z,19.80
2023-02-08T11:56:24.793Z,21.57
2023-02-08T11:59:04.966Z,21.40
2023-02-08T12:01:38.756Z,19.80
2023-02-08T12:04:13.168Z,19.30
2023-02-08T12:07:01.329Z,21.40
2023-02-08T12:10:06.599Z,19.13
2023-02-08T12:13:13.505Z,19.70
2023-02-08T12:16:11.966Z,19.33
2023-02-08T12:19:01.285Z,19.73
2023-02-08T12:21:45.456Z,20.10
2023-02-08T12:24:25.642Z,18.67
2023-02-08T12:27:31.069Z,20.03
2023-02-08T12:30:36.144Z,19.60
2023-02-08T12:33:56.335Z,24.03
2023-02-08T12:37:12.822Z,20.70
2023-02-08T12:40:17.970Z,19.37
2023-02-08T12:43:03.545Z,20.37
2023-02-08T12:45:45.445Z,20.23
2023-02-08T12:48:52.251Z,19.50
2023-02-08T12:51:42.713Z,21.50
2023-02-08T12:54:30.784Z,20.40
2023-02-08T12:57:02.376Z,21.37
2023-02-08T12:59:49.906Z,18.60
2023-02-08T13:02:24.576Z,19.80
2023-02-08T13:04:59.485Z,20.13
2023-02-08T13:07:32.426Z,19.60
2023-02-08T13:10:35.799Z,24.03
2023-02-08T13:13:27.213Z,21.57
2023-02-08T13:16:10.626Z,20.47
2023-02-08T13:18:49.034Z,22.90
2023-02-08T13:21:23.078Z,22.73
2023-02-08T13:23:53.167Z,20.50
2023-02-08T13:26:28.244Z,23.67
2023-02-08T13:29:01.064Z,22.43
2023-02-08T13:31:41.169Z,22.57
2023-02-08T13:34:57.136Z,22.30
2023-02-08T13:37:31.293Z,22.57
2023-02-08T13:40:07.292Z,21.43
2023-02-08T13:42:42.742Z,20.63
2023-02-08T13:45:22.851Z,24.40
2023-02-08T13:47:59.724Z,25.47
2023-02-08T13:50:51.138Z,22.27
2023-02-08T13:53:38.625Z,23.20
2023-02-08T13:56:10.403Z,24.30
2023-02-08T13:58:46.129Z,21.00
2023-02-08T14:01:35.690Z,22.50
2023-02-08T14:04:17.724Z,22.93
2023-02-08T14:06:55.902Z,22.77
2023-02-08T14:09:44.137Z,23.90
2023-02-08T14:12:39.132Z,21.13
2023-02-08T14:15:14.841Z,23.70
2023-02-08T14:17:48.828Z,24.20
2023-02-08T14:20:40.575Z,22.77
2023-02-08T14:23:27.677Z,19.80
2023-02-08T14:25:57.575Z,23.47
2023-02-08T14:28:41.561Z,23.00
2023-02-08T14:31:11.788Z,24.40
2023-02-08T14:33:49.419Z,24.93
2023-02-08T14:36:30.935Z,24.73
2023-02-08T14:39:29.175Z,22.73
2023-02-08T14:42:05.307Z,25.70
2023-02-08T14:44:38.000Z,26.83
2023-02-08T14:47:36.938Z,24.60
2023-02-08T14:50:16.756Z,26.10
2023-02-08T14:53:13.258Z,26.77
2023-02-08T14:56:09.979Z,26.33
2023-02-08T14:58:43.517Z,25.73
2023-02-08T15:01:32.818Z,25.40
2023-02-08T15:04:02.347Z,23.57
2023-02-08T15:06:38.728Z,25.77
2023-02-08T15:09:27.392Z,26.67
2023-02-08T15:12:26.767Z,23.63
2023-02-08T15:14:58.439Z,27.73
2023-02-08T15:17:44.459Z,25.90
2023-02-08T15:20:25.146Z,25.00
2023-02-08T15:23:23.323Z,26.30
2023-02-08T15:26:03.410Z,26.77
2023-02-08T15:28:34.387Z,27.67
2023-02-08T15:31:11.436Z,27.13
2023-02-08T15:33:40.242Z,26.13
2023-02-08T15:36:15.770Z,26.40
2023-02-08T15:38:44.922Z,26.87
2023-02-08T15:41:24.537Z,26.23
2023-02-08T15:43:51.547Z,27.00
2023-02-08T15:46:25.897Z,28.87
2023-02-08T15:48:53.808Z,29.13
2023-02-08T15:51:23.165Z,28.80
2023-02-08T15:53:54.052Z,28.83
2023-02-08T15:56:38.051Z,29.43
2023-02-08T15:59:14.737Z,27.30
2023-02-08T16:01:46.559Z,28.73
2023-02-08T16:04:13.511Z,26.83
2023-02-08T16:06:55.017Z,26.70
2023-02-08T16:09:29.765Z,26.40
2023-02-08T16:12:00.733Z,26.60
2023-02-08T16:14:30.281Z,26.20
2023-02-08T16:16:58.652Z,24.87
2023-02-08T16:19:29.554Z,25.53
2023-02-08T16:22:12.586Z,24.10
2023-02-08T16:24:39.603Z,25.53
2023-02-08T16:27:20.555Z,30.80
2023-02-08T16:29:48.256Z,33.70
2023-02-08T16:32:36.033Z,27.87
2023-02-08T16:35:24.843Z,28.00
2023-02-08T16:38:00.734Z,25.90
2023-02-08T16:40:52.405Z,27.70
2023-02-08T16:43:28.786Z,25.70
2023-02-08T16:46:21.229Z,27.70
2023-02-08T16:48:58.005Z,28.07
2023-02-08T16:51:27.184Z,27.23
2023-02-08T16:54:00.734Z,26.00
2023-02-08T16:56:27.664Z,26.80
2023-02-08T16:58:54.528Z,27.17
2023-02-08T17:01:24.295Z,27.10
2023-02-08T17:03:52.884Z,28.83
2023-02-08T17:06:32.959Z,28.83
2023-02-08T17:09:02.364Z,25.90
2023-02-08T17:11:29.504Z,28.73
2023-02-08T17:13:58.324Z,26.70
2023-02-08T17:16:28.745Z,25.63
2023-02-08T17:18:56.757Z,29.20
2023-02-08T17:21:23.832Z,27.93
2023-02-08T17:23:50.897Z,26.93
2023-02-08T17:26:23.009Z,27.80
2023-02-08T17:28:50.395Z,28.47
2023-02-08T17:31:17.474Z,26.10
2023-02-08T17:33:44.506Z,28.10
2023-02-08T17:36:14.565Z,26.60
2023-02-08T17:38:43.666Z,28.10
2023-02-08T17:41:15.942Z,28.93
2023-02-08T17:43:42.884Z,28.93
2023-02-08T17:46:17.405Z,27.17
2023-02-08T17:48:46.688Z,27.97
2023-02-08T17:51:19.077Z,28.97
2023-02-08T17:53:46.413Z,26.63
2023-02-08T17:56:18.023Z,28.37
2023-02-08T17:58:45.381Z,30.90
2023-02-08T18:01:17.479Z,29.73
2023-02-08T18:03:45.807Z,28.03
2023-02-08T18:06:13.716Z,27.77
2023-02-08T18:08:41.421Z,29.00
2023-02-08T18:11:17.808Z,28.77
2023-02-08T18:13:46.074Z,28.80
2023-02-08T18:16:17.121Z,29.30
2023-02-08T18:18:44.930Z,26.90
2023-02-08T18:21:18.512Z,28.70
2023-02-08T18:23:46.589Z,31.53
2023-02-08T18:26:22.793Z,32.57
2023-02-08T18:28:51.678Z,35.65
2023-02-08T18:31:20.316Z,34.10
2023-02-08T18:33:48.762Z,32.33
2023-02-08T18:36:16.818Z,28.83
2023-02-08T18:38:46.322Z,32.00
2023-02-08T18:41:23.000Z,30.23
2023-02-08T18:43:51.137Z,30.07
2023-02-08T18:46:21.454Z,32.17
2023-02-08T18:48:50.473Z,33.03
2023-02-08T18:51:19.861Z,32.20
2023-02-08T18:53:53.108Z,32.17
2023-02-08T18:56:23.975Z,32.73
2023-02-08T18:58:52.962Z,32.43
2023-02-08T19:01:23.435Z,32.13
2023-02-08T19:03:51.725Z,33.00
2023-02-08T19:06:24.390Z,31.53
2023-02-08T19:08:54.368Z,32.60
2023-02-08T19:11:26.227Z,35.10
2023-02-08T19:13:56.025Z,32.73
2023-02-08T19:16:24.615Z,35.40
2023-02-08T19:18:53.182Z,35.67
2023-02-08T19:21:20.398Z,32.90
2023-02-08T19:23:51.792Z,33.23
2023-02-08T19:26:29.155Z,33.10
2023-02-08T19:28:59.282Z,32.07
2023-02-08T19:31:27.908Z,32.93
2023-02-08T19:33:58.707Z,30.20
2023-02-08T19:36:32.056Z,30.50
2023-02-08T19:39:00.417Z,32.37
2023-02-08T19:41:35.147Z,31.30
2023-02-08T19:44:05.430Z,29.27
2023-02-08T19:46:35.004Z,28.70
2023-02-08T19:49:02.403Z,29.50
2023-02-08T19:51:32.219Z,29.20
2023-02-08T19:54:00.848Z,30.60
2023-02-08T19:56:33.787Z,28.60
2023-02-08T19:59:09.384Z,27.70
2023-02-08T20:01:36.447Z,28.60
2023-02-08T20:04:05.818Z,26.07
2023-02-08T20:06:37.142Z,28.00
2023-02-08T20:09:04.672Z,26.33
2023-02-08T20:11:37.128Z,27.97
2023-02-08T20:14:07.003Z,27.53
2023-02-08T20:16:34.496Z,26.97
2023-02-08T20:19:02.527Z,26.90
2023-02-08T20:21:29.777Z,29.37
2023-02-08T20:23:56.691Z,27.17
2023-02-08T20:26:27.174Z,27.80
2023-02-08T20:28:58.454Z,27.07
2023-02-08T20:31:33.313Z,27.43
2023-02-08T20:34:04.309Z,29.10
2023-02-08T20:36:38.475Z,27.07
2023-02-08T20:39:05.532Z,26.53
2023-02-08T20:41:33.943Z,26.37
2023-02-08T20:44:01.029Z,25.07
2023-02-08T20:46:34.448Z,27.80
2023-02-08T20:49:04.252Z,26.10
2023-02-08T20:51:32.310Z,29.17
2023-02-08T20:54:01.109Z,25.67
2023-02-08T20:56:34.704Z,27.53
2023-02-08T20:59:06.566Z,28.47
2023-02-08T21:01:35.133Z,27.97
2023-02-08T21:04:03.210Z,26.63
2023-02-08T21:06:36.638Z,27.37
2023-02-08T21:09:12.375Z,26.63
2023-02-08T21:11:39.864Z,25.30
2023-02-08T21:14:08.173Z,25.97
2023-02-08T21:16:35.163Z,25.93
2023-02-08T21:19:02.081Z,27.63
2023-02-08T21:21:29.002Z,25.50
2023-02-08T21:23:57.806Z,25.83
2023-02-08T21:26:25.943Z,26.57
2023-02-08T21:28:55.103Z,24.73
2023-02-08T21:31:23.785Z,28.20
2023-02-08T21:33:51.306Z,24.77
2023-02-08T21:36:22.477Z,25.07
2023-02-08T21:38:49.677Z,29.40
2023-02-08T21:41:26.177Z,26.00
2023-02-08T21:43:56.019Z,25.83
2023-02-08T21:46:27.727Z,24.47
2023-02-08T21:49:14.704Z,26.03
2023-02-08T21:52:01.006Z,26.00
2023-02-08T21:54:46.660Z,24.03
2023-02-08T21:57:23.318Z,24.20
2023-02-08T21:59:54.529Z,22.60
2023-02-08T22:02:29.914Z,24.47
2023-02-08T22:05:17.783Z,24.90
2023-02-08T22:07:57.414Z,23.47
2023-02-08T22:10:28.350Z,23.10
2023-02-08T22:12:57.227Z,23.50
2023-02-08T22:15:30.037Z,24.20
2023-02-08T22:18:00.284Z,25.03
2023-02-08T22:20:28.142Z,23.90
2023-02-08T22:22:55.525Z,23.70
2023-02-08T22:25:23.510Z,21.87
2023-02-08T22:27:50.480Z,22.77
2023-02-08T22:30:19.317Z,23.40
2023-02-08T22:32:48.991Z,22.40
2023-02-08T22:35:17.737Z,22.60
2023-02-08T22:37:44.813Z,22.20
2023-02-08T22:40:12.795Z,22.70
2023-02-08T22:42:41.281Z,22.00
2023-02-08T22:45:09.010Z,21.20
2023-02-08T22:47:36.415Z,21.20
2023-02-08T22:50:04.977Z,20.00
2023-02-08T22:52:34.329Z,20.57
2023-02-08T22:55:03.994Z,20.77
2023-02-08T22:57:33.658Z,20.70
2023-02-08T23:00:00.915Z,21.50
2023-02-08T23:02:27.900Z,20.53
2023-02-08T23:04:54.930Z,21.03
2023-02-08T23:07:22.009Z,21.00
2023-02-08T23:09:48.868Z,21.57
2023-02-08T23:12:15.765Z,21.70
2023-02-08T23:14:42.632Z,21.00
2023-02-08T23:17:09.538Z,22.33
2023-02-08T23:19:36.406Z,19.97
2023-02-08T23:22:03.344Z,19.30
2023-02-08T23:24:30.205Z,20.57
2023-02-08T23:26:57.069Z,22.37
2023-02-08T23:29:24.089Z,20.50
2023-02-08T23:31:51.055Z,19.77
2023-02-08T23:34:18.494Z,19.77
2023-02-08T23:36:46.719Z,19.57
2023-02-08T23:39:13.626Z,18.90
2023-02-08T23:41:40.544Z,20.90
2023-02-08T23:44:07.510Z,22.10
2023-02-08T23:46:34.496Z,20.10
2023-02-08T23:49:01.547Z,19.47
2023-02-08T23:51:28.573Z,20.30
2023-02-08T23:53:55.570Z,20.43
2023-02-08T23:56:31.861Z,20.37
2023-02-08T23:58:59.950Z,20.80
